Latest Weather Observations for Cape Flattery

IDQ60801

Issued at 7:02 am EST Saturday 31 January 2015 (issued every 30 minutes, with the page automatically refreshed every 10 minutes)

About weather observations | Map of weather stations | Latest weather observations for QLD | Other Formats
Station Details ID: 031213 Name: CAPE FLATTERY Lat: -14.97 Lon: 145.31 Height: 18.5 m
Data from the previous 72 hours. | See also: Recent months at Cape Flattery
Date/Time
EST
Temp
°C
App
Temp
°C
Dew
Point
Rel
Hum
%
Delta-T
°C
Wind Press
QNH
hPa
Press
MSL
hPa
Rain
since 9 am
mm
Dir
 
Spd
km/h
Gust
km/h
Spd
kts
Gust
kts
31/07:00am 26.7 31.0 24.2 86 1.7 S 9 11 5 6 1007.4 1007.3 0.0
31/06:30am 26.1 30.4 24.3 90 1.2 SSW 9 11 5 6 1007.1 1007.0 0.0
31/06:00am 25.9 30.1 24.1 90 1.2 S 9 11 5 6 1006.9 1006.8 0.0
31/05:30am 26.0 30.5 23.9 88 1.4 SSE 7 9 4 5 1006.6 1006.5 0.0
31/05:00am 26.5 31.1 23.8 85 1.9 SW 6 7 3 4 1006.4 1006.3 0.0
31/04:30am 26.9 31.7 24.4 86 1.7 WSW 7 7 4 4 1006.3 1006.2 0.0
31/04:00am 27.3 31.8 24.6 85 1.9 WSW 9 11 5 6 1006.1 1006.0 0.0
31/03:30am 28.0 32.7 25.0 84 2.1 NNW 9 13 5 7 1005.9 1005.8 0.0
31/03:00am 28.0 32.6 24.8 83 2.2 N 9 13 5 7 1006.0 1005.9 0.0
31/02:30am 28.1 32.3 24.7 82 2.4 N 11 15 6 8 1006.1 1006.0 0.0
31/02:00am 28.2 31.7 24.8 82 2.4 NNW 15 20 8 11 1006.2 1006.1 0.0
31/01:30am 28.4 31.9 24.8 81 2.5 NNW 15 19 8 10 1006.5 1006.4 0.0
31/01:00am 28.2 30.9 24.2 79 2.8 NNW 17 24 9 13 1006.8 1006.7 0.0
31/12:30am 28.4 30.9 24.4 79 2.8 NNW 19 24 10 13 1007.0 1006.9 0.0
31/12:00am 28.5 31.7 24.9 81 2.5 NNW 17 26 9 14 1007.4 1007.3 0.0
 
Date/Time
EST
Temp
°C
App
Temp
°C
Dew
Point
Rel
Hum
%
Delta-T
°C
Wind Press
QNH
hPa
Press
MSL
hPa
Rain
since 9 am
mm
Dir
 
Spd
km/h
Gust
km/h
Spd
kts
Gust
kts
30/11:30pm 28.8 31.9 24.1 76 3.3 NNW 15 19 8 10 1007.6 1007.5 0.0
30/11:00pm 28.3 31.3 23.4 75 3.4 NNW 13 19 7 10 1007.6 1007.5 0.0
30/10:30pm 28.2 31.7 24.2 79 2.8 NNW 13 15 7 8 1007.3 1007.2 0.0
30/10:00pm 28.4 33.1 25.0 82 2.4 NNW 9 13 5 7 1007.0 1006.9 0.0
30/09:30pm 28.5 33.2 24.9 81 2.5 N 9 15 5 8 1006.7 1006.6 0.0
30/09:00pm 28.3 34.6 24.7 81 2.5 CALM 0 6 0 3 1006.5 1006.4 0.0
30/08:30pm 28.3 32.4 24.5 80 2.6 N 11 19 6 10 1006.2 1006.1 0.0
30/08:00pm 28.7 32.4 24.5 78 2.9 N 13 20 7 11 1006.1 1006.0 0.0
30/07:30pm 28.7 32.3 23.8 75 3.4 N 11 17 6 9 1005.7 1005.6 0.0
30/07:00pm 28.8 32.1 23.2 71 3.8 N 11 15 6 8 1005.7 1005.6 0.0
30/06:30pm 28.9 32.7 24.7 78 2.9 NNW 13 19 7 10 1005.3 1005.2 0.0
30/06:00pm 29.3 32.7 24.0 73 3.7 N 13 19 7 10 1005.1 1005.0 0.0
30/05:30pm 30.1 33.2 23.5 67 4.6 NNE 13 17 7 9 1004.6 1004.5 0.0
30/05:00pm 30.9 34.6 24.5 68 4.5 NNE 13 20 7 11 1004.1 1004.0 0.0
30/04:30pm 31.1 34.2 24.2 66 4.8 N 15 20 8 11 1004.0 1003.9 0.0
30/04:00pm 31.3 34.0 24.2 66 5.0 N 17 22 9 12 1003.8 1003.7 0.0
30/03:30pm 31.8 34.5 24.1 63 5.4 N 17 20 9 11 1003.8 1003.7 0.0
30/03:00pm 32.3 34.9 24.6 64 5.4 N 19 24 10 13 1003.8 1003.7 0.0
30/02:30pm 32.7 35.8 24.2 61 5.9 NNE 15 26 8 14 1004.2 1004.1 0.0
30/02:00pm 32.1 33.8 23.1 59 6.2 NNE 19 26 10 14 1004.5 1004.4 0.0
30/01:30pm 33.4 35.7 23.4 55 6.9 ENE 17 22 9 12 1004.4 1004.3 0.0
30/01:00pm 33.4 34.5 21.9 51 7.9 SE 19 26 10 14 1004.7 1004.6 0.0
30/12:30pm 32.6 33.4 22.4 55 7.0 SE 22 30 12 16 1004.9 1004.8 0.0
30/12:00pm 33.2 34.1 22.6 53 7.3 SE 22 28 12 15 1005.3 1005.2 0.0
30/11:30am 34.0 35.2 22.1 50 8.1 SE 19 24 10 13 1005.6 1005.5 0.0
30/11:00am 33.6 34.4 21.4 48 8.3 SE 19 24 10 13 1005.9 1005.8 0.0
30/10:30am 33.2 35.1 22.0 51 7.6 SSE 15 20 8 11 1006.2 1006.1 0.0
30/10:00am 33.0 34.6 22.1 52 7.5 WSW 17 24 9 13 1006.5 1006.4 0.0
30/09:30am 31.9 32.5 21.4 53 7.1 SW 20 26 11 14 1006.5 1006.4 0.0
30/09:00am 31.1 32.1 22.1 58 6.1 SW 20 28 11 15 1006.4 1006.3 0.0
30/08:30am 30.3 32.7 23.0 65 5.0 WSW 15 20 8 11 1006.4 1006.3 0.0
30/08:00am 29.2 32.5 23.2 70 4.1 SW 11 17 6 9 1006.3 1006.2 0.0
30/07:30am 27.9 33.2 23.7 78 2.9 SW 2 7 1 4 1006.1 1006.0 0.0
30/07:00am 26.6 32.5 24.1 86 1.7 CALM 0 0 0 0 1005.8 1005.7 0.0
30/06:30am 25.5 31.1 23.6 89 1.3 CALM 0 4 0 2 1005.6 1005.5 0.0
30/06:00am 25.5 29.9 23.4 88 1.4 W 6 7 3 4 1005.2 1005.1 0.0
30/05:30am 26.1 30.3 24.1 89 1.4 WNW 9 11 5 6 1004.8 1004.7 0.0
30/05:00am 26.4 29.9 24.2 88 1.5 NW 13 17 7 9 1004.6 1004.5 0.0
30/04:30am 26.3 29.9 24.3 89 1.4 NW 13 17 7 9 1004.4 1004.3 0.0
30/04:00am 26.2 30.4 24.1 88 1.5 WNW 9 11 5 6 1004.3 1004.2 0.0
30/03:30am 27.0 31.3 24.3 85 1.9 W 9 13 5 7 1004.4 1004.3 0.0
30/03:00am 27.7 30.0 24.5 83 2.2 NW 20 28 11 15 1004.3 1004.2 0.0
30/02:30am 27.9 30.2 25.1 85 2.0 NW 22 30 12 16 1004.4 1004.3 0.0
30/02:00am 27.9 29.6 25.3 86 1.8 NNW 26 35 14 19 1004.5 1004.4 0.0
30/01:30am 27.8 29.4 25.2 86 1.8 NNW 26 35 14 19 1004.8 1004.7 0.0
30/01:00am 28.0 29.6 25.2 85 2.0 NNW 26 37 14 20 1005.1 1005.0 0.0
30/12:30am 28.0 29.6 25.2 85 2.0 NNW 26 35 14 19 1005.3 1005.2 0.0
30/12:00am 28.0 29.6 25.2 85 2.0 NNW 26 33 14 18 1005.6 1005.5 0.0
 
Date/Time
EST
Temp
°C
App
Temp
°C
Dew
Point
Rel
Hum
%
Delta-T
°C
Wind Press
QNH
hPa
Press
MSL
hPa
Rain
since 9 am
mm
Dir
 
Spd
km/h
Gust
km/h
Spd
kts
Gust
kts
29/11:30pm 28.0 30.0 25.2 85 2.0 NNW 24 33 13 18 1005.7 1005.6 0.0
29/11:00pm 27.9 30.1 25.5 87 1.7 NNW 24 32 13 17 1005.7 1005.6 0.0
29/10:30pm 28.0 30.3 25.6 87 1.7 NNW 24 32 13 17 1005.6 1005.5 0.0
29/10:00pm 28.1 30.1 25.7 87 1.7 NNW 26 35 14 19 1005.3 1005.2 0.0
29/09:30pm 28.0 30.5 25.4 86 1.8 NNW 22 32 12 17 1005.0 1004.9 0.0
29/09:00pm 28.3 30.9 25.5 85 2.0 NNW 22 32 12 17 1004.7 1004.6 0.0
29/08:30pm 28.3 31.3 25.5 85 2.0 NNW 20 28 11 15 1004.3 1004.2 0.0
29/08:00pm 28.6 31.4 25.2 82 2.4 NNW 20 28 11 15 1003.8 1003.7 0.0
29/07:30pm 28.9 31.6 25.1 80 2.7 NNW 20 26 11 14 1003.4 1003.3 0.0
29/07:00pm 28.9 31.7 25.3 81 2.5 NNW 20 26 11 14 1002.9 1002.8 0.0
29/06:30pm 29.4 32.1 24.7 76 3.3 NNW 19 26 10 14 1002.5 1002.4 0.0
29/06:00pm 29.8 32.3 24.7 74 3.6 NNW 20 30 11 16 1002.3 1002.2 0.0
29/05:30pm 30.5 32.5 25.1 73 3.8 NNW 24 35 13 19 1002.3 1002.2 0.0
29/05:00pm 30.7 32.5 24.8 71 4.2 NNW 24 32 13 17 1002.1 1002.0 0.0
29/04:30pm 30.6 31.9 25.2 73 3.8 NNW 28 37 15 20 1001.9 1001.8 0.0
29/04:00pm 30.7 31.5 25.1 72 4.0 NNW 30 39 16 21 1001.9 1001.8 0.0
29/03:30pm 31.2 32.0 25.1 70 4.3 NNW 30 39 16 21 1002.2 1002.1 0.0
29/03:00pm 30.9 31.1 25.0 71 4.2 NNW 33 43 18 23 1002.4 1002.3 0.0
29/02:30pm 31.0 31.4 25.4 72 4.0 NNW 33 46 18 25 1002.7 1002.6 0.0
29/02:00pm 31.6 32.4 25.7 71 4.2 NNW 32 44 17 24 1003.0 1002.9 0.0
29/01:30pm 31.7 32.8 25.5 69 4.4 NNW 30 43 16 23 1003.2 1003.1 0.0
29/01:00pm 32.0 34.0 26.3 72 4.1 NNW 28 41 15 22 1003.4 1003.3 0.0
29/12:30pm 31.7 32.6 25.8 71 4.2 NNW 32 41 17 22 1003.8 1003.7 0.0
29/12:00pm 31.0 31.7 24.9 70 4.3 NNW 30 39 16 21 1004.1 1004.0 0.0
29/11:30am 32.0 34.5 24.8 65 5.1 NNW 20 30 11 16 1004.3 1004.2 0.0
29/11:00am 31.8 33.3 24.4 65 5.2 NNW 24 30 13 16 1004.6 1004.5 0.0
29/10:30am 31.5 33.1 23.3 61 5.7 NNW 20 30 11 16 1004.8 1004.7 0.0
29/10:00am 31.8 32.7 21.6 54 6.9 NW 19 24 10 13 1005.0 1004.9 0.0
29/09:30am 30.8 31.9 21.9 59 6.0 NW 19 24 10 13 1004.8 1004.7 0.0
29/09:00am 30.1 31.4 21.7 60 5.7 NW 17 22 9 12 1004.8 1004.7 0.0
29/08:30am 29.4 31.1 23.1 69 4.3 NW 19 24 10 13 1004.6 1004.5 0.0
29/08:00am 28.6 30.4 23.3 73 3.6 NW 19 28 10 15 1004.5 1004.4 0.0
29/07:30am 27.6 30.1 23.2 77 3.0 NW 15 20 8 11 1004.3 1004.2 0.0
29/07:00am 26.6 28.7 23.1 81 2.4 NW 17 24 9 13 1004.1 1004.0 0.0
29/06:30am 25.5 27.9 23.0 86 1.7 NW 15 20 8 11 1003.7 1003.6 0.0
29/06:00am 24.7 28.0 22.6 88 1.4 NW 9 13 5 7 1003.3 1003.2 0.0
29/05:30am 24.2 27.3 22.1 88 1.4 WNW 9 11 5 6 1003.1 1003.0 0.0
29/05:00am 24.5 27.1 22.0 86 1.7 WNW 11 13 6 7 1002.9 1002.8 0.0
29/04:30am 24.8 27.8 21.9 84 1.9 WNW 9 11 5 6 1002.9 1002.8 0.0
29/04:00am 25.2 28.0 22.3 84 2.0 NW 11 15 6 8 1002.9 1002.8 0.0
29/03:30am 25.4 28.1 22.1 82 2.2 WNW 11 13 6 7 1003.0 1002.9 0.0
29/03:00am 25.5 29.0 22.2 82 2.2 NW 7 11 4 6 1003.0 1002.9 0.0
29/02:30am 25.9 28.9 22.0 79 2.6 W 9 11 5 6 1003.1 1003.0 0.0
29/02:00am 27.3 29.9 22.7 76 3.1 NW 13 19 7 10 1003.3 1003.2 0.0
29/01:30am 27.5 30.1 22.7 75 3.3 NW 13 19 7 10 1003.3 1003.2 0.0
29/01:00am 27.4 30.8 23.4 79 2.7 NNW 11 15 6 8 1003.5 1003.4 0.0
29/12:30am 27.3 31.6 24.2 83 2.1 NW 9 13 5 7 1003.7 1003.6 0.0
29/12:00am 27.6 30.6 24.0 81 2.5 NW 15 20 8 11 1003.9 1003.8 0.0
 
Date/Time
EST
Temp
°C
App
Temp
°C
Dew
Point
Rel
Hum
%
Delta-T
°C
Wind Press
QNH
hPa
Press
MSL
hPa
Rain
since 9 am
mm
Dir
 
Spd
km/h
Gust
km/h
Spd
kts
Gust
kts
28/11:30pm 27.9 31.7 24.7 83 2.2 NW 13 17 7 9 1004.3 1004.2 0.0
28/11:00pm 27.7 31.8 24.5 83 2.2 NW 11 13 6 7 1004.4 1004.3 0.0
28/10:30pm 27.6 31.5 24.8 85 2.0 NW 13 19 7 10 1004.1 1004.0 0.0
28/10:00pm 27.9 31.7 24.7 83 2.2 WNW 13 17 7 9 1003.9 1003.8 0.0
28/09:30pm 28.6 31.6 25.6 84 2.1 NNW 20 28 11 15 1003.6 1003.5 0.0
28/09:00pm 28.5 30.2 25.3 83 2.3 NNW 26 33 14 18 1003.1 1003.0 0.0
28/08:30pm 28.7 30.9 25.5 83 2.3 NNW 24 33 13 18 1002.8 1002.7 0.0
28/08:00pm 28.6 30.2 25.2 82 2.4 NNW 26 33 14 18 1002.4 1002.3 0.0
28/07:30pm 28.8 30.7 25.0 80 2.7 NNW 24 35 13 19 1002.3 1002.2 0.0
28/07:00pm 28.9 30.7 24.2 76 3.3 NNW 22 28 12 15 1001.7 1001.6 0.0
28/06:30pm 28.9 30.7 24.2 76 3.3 NNW 22 30 12 16 1001.6 1001.5 0.0
28/06:00pm 29.1 30.2 24.4 76 3.3 NNW 26 35 14 19 1001.1 1001.0 0.0
28/05:30pm 29.8 30.6 24.4 73 3.8 NNW 28 37 15 20 1000.7 1000.6 0.0
28/05:00pm 29.5 30.3 24.4 74 3.6 NNW 28 43 15 23 1000.5 1000.4 0.0
28/04:30pm 30.1 31.9 24.9 73 3.7 NNW 24 35 13 19 1000.4 1000.3 0.0
28/04:00pm 30.0 30.8 24.4 72 3.9 NNW 28 35 15 19 1000.1 1000.0 0.0
28/03:30pm 29.9 30.5 24.8 74 3.6 NNW 30 37 16 20 1000.2 1000.1 0.0
28/03:00pm 30.0 30.8 24.4 72 3.9 NNW 28 37 15 20 1000.7 1000.6 0.0
28/02:30pm 31.7 32.8 24.3 65 5.2 NNW 26 35 14 19 1001.1 1001.0 0.0
28/02:00pm 31.0 32.3 23.4 64 5.3 NNW 22 30 12 16 1001.6 1001.5 0.0
28/01:30pm 29.7 31.6 22.7 66 4.8 NNW 17 26 9 14 1001.6 1001.5 0.0
28/01:00pm 30.6 31.8 22.5 62 5.5 W 20 32 11 17 1001.5 1001.4 0.0
28/12:30pm 30.9 33.0 25.9 74 3.6 N 26 37 14 20 1001.8 1001.7 0.0
28/12:00pm 31.3 33.9 26.6 76 3.4 N 26 35 14 19 1002.4 1002.3 0.0
28/11:30am 32.2 35.1 24.5 64 5.4 NNW 17 26 9 14 1002.6 1002.5 0.0
28/11:00am 32.5 35.3 23.7 59 6.1 W 15 20 8 11 1002.9 1002.8 0.0
28/10:30am 33.2 36.4 24.4 60 6.2 WNW 15 20 8 11 1003.2 1003.1 0.0
28/10:00am 32.7 35.6 24.5 62 5.8 WSW 17 22 9 12 1003.2 1003.1 0.0
28/09:30am 31.3 34.0 24.2 66 5.0 WNW 17 22 9 12 1003.1 1003.0 0.0
28/09:00am 30.1 31.3 23.8 69 4.4 W 24 33 13 18 1003.0 1002.9 0.0
28/08:30am 30.0 33.4 24.6 73 3.8 W 15 20 8 11 1003.0 1002.9 0.0
28/08:00am 28.7 33.3 24.7 79 2.8 WNW 9 15 5 8 1003.2 1003.1 0.0
28/07:30am 27.7 31.1 24.1 81 2.5 NW 13 17 7 9 1003.2 1003.1 0.0

Other Formats:

Comma delimited format used in spreadsheet applications
http://www.bom.gov.au/fwo/IDQ60801/IDQ60801.94188.axf

JavaScript Object Notation format (JSON) in row-major order
http://www.bom.gov.au/fwo/IDQ60801/IDQ60801.94188.json